Rantoul, Kansas
Current Conditions -  °F | °C
As of 3:53 AM on Monday 22 Dec 2014 (Local Time) from KIXD Reporting Station
Light Rain Light Rain  
Wind Chill: 34°   Ceiling: 600
Heat Index: 41°   Visibility: 4mi
Dew Point: 40°   Wind: 13mph
Humidity: 96%   Direction: 140°SE
Pressure: 29.64"   Gusts: NA
Location:  38.55°N, 95.1°W
Report Text: KIXD 220953Z AUTO 14011KT 4SM -RA BR OVC006 05/04 A2964 RMK AO2 RAE21B41 CIG 004V009 SLP040 P0001 T00500044
Loading
Personal Weather Stations






























Interactive Weather Map New forecast layout! Learn more

10-Day Weather Forecast

Advertisements
Track Severe Weather on mobile